Osyka, Mississippi
Current Conditions -  °F | °C
As of 12:53 AM on Wednesday 22 Oct 2014 (Local Time) from KMCB Reporting Station
Clear Clear  
Wind Chill: 57°   Ceiling: Unl
Heat Index: 57°   Visibility: 9mi
Dew Point: 54°   Wind: 0mph
Humidity: 89%   Direction: NA
Pressure: 30.06"   Gusts: NA
Location:  31.01°N, 90.47°W
Report Text: KMCB 220553Z AUTO 00000KT 9SM CLR 14/12 A3006 RMK AO2 SLP173 T01390122 10222 20139 402670111 55002
Loading
Personal Weather Stations






























Interactive Weather Map
Tropical Storm Tracking
New forecast layout! Learn more

10-Day Weather Forecast

Advertisements
Track Severe Weather on mobile